地図

経路データ

SID SEASON NUMBER BASIN SUBBASIN NAME ISO_TIME NATURE LAT LON WMO_WIND WMO_PRES WMO_AGENCY TRACK_TYPE DIST2LAND LANDFALL IFLAG USA_AGENCY USA_ATCF_ID USA_LAT USA_LON USA_RECORD USA_STATUS USA_WIND USA_PRES USA_SSHS USA_R34_NE USA_R34_SE USA_R34_SW USA_R34_NW USA_R50_NE USA_R50_SE USA_R50_SW USA_R50_NW USA_R64_NE USA_R64_SE USA_R64_SW USA_R64_NW USA_POCI USA_ROCI USA_RMW USA_EYE TOKYO_LAT TOKYO_LON TOKYO_GRADE TOKYO_WIND TOKYO_PRES TOKYO_R50_DIR TOKYO_R50_LONG TOKYO_R50_SHORT TOKYO_R30_DIR TOKYO_R30_LONG TOKYO_R30_SHORT TOKYO_LAND CMA_LAT CMA_LON CMA_CAT CMA_WIND CMA_PRES HKO_LAT HKO_LON HKO_CAT HKO_WIND HKO_PRES NEWDELHI_LAT NEWDELHI_LON NEWDELHI_GRADE NEWDELHI_WIND NEWDELHI_PRES NEWDELHI_CI NEWDELHI_DP NEWDELHI_POCI REUNION_LAT REUNION_LON REUNION_TYPE REUNION_WIND REUNION_PRES REUNION_TNUM REUNION_CI REUNION_RMW REUNION_R34_NE REUNION_R34_SE REUNION_R34_SW REUNION_R34_NW REUNION_R50_NE REUNION_R50_SE REUNION_R50_SW REUNION_R50_NW REUNION_R64_NE REUNION_R64_SE REUNION_R64_SW REUNION_R64_NW BOM_LAT BOM_LON BOM_TYPE BOM_WIND BOM_PRES BOM_TNUM BOM_CI BOM_RMW BOM_R34_NE BOM_R34_SE BOM_R34_SW BOM_R34_NW BOM_R50_NE BOM_R50_SE BOM_R50_SW BOM_R50_NW BOM_R64_NE BOM_R64_SE BOM_R64_SW BOM_R64_NW BOM_ROCI BOM_POCI BOM_EYE BOM_POS_METHOD BOM_PRES_METHOD NADI_LAT NADI_LON NADI_CAT NADI_WIND NADI_PRES WELLINGTON_LAT WELLINGTON_LON WELLINGTON_WIND WELLINGTON_PRES DS824_LAT DS824_LON DS824_STAGE DS824_WIND DS824_PRES TD9636_LAT TD9636_LON TD9636_STAGE TD9636_WIND TD9636_PRES TD9635_LAT TD9635_LON TD9635_WIND TD9635_PRES TD9635_ROCI NEUMANN_LAT NEUMANN_LON NEUMANN_CLASS NEUMANN_WIND NEUMANN_PRES MLC_LAT MLC_LON MLC_CLASS MLC_WIND MLC_PRES USA_GUST BOM_GUST BOM_GUST_PER REUNION_GUST REUNION_GUST_PER USA_SEAHGT USA_SEARAD_NE USA_SEARAD_SE USA_SEARAD_SW USA_SEARAD_NW STORM_SPEED STORM_DIR
1961188N10147 1961 57 WP MM ELSIE 1961-07-06 12:00:00 TS 9.80000 146.900 1010 tokyo main 1333 1333 _OO___________ -1 10.0000 147.000 2 1010 0 0 0 9.60000 146.800 0 1010 10 278
1961188N10147 1961 57 WP MM ELSIE 1961-07-06 15:00:00 TS 9.87022 146.410 main 1344 1344 _PP___________ -1 9.95027 146.450 2 1009 0 0 9.79016 146.370 0 1009 9 283
1961188N10147 1961 57 WP MM ELSIE 1961-07-06 18:00:00 TS 10.0000 146.000 1008 tokyo main 1357 1357 _OO___________ -1 10.0000 146.000 2 1008 0 0 0 10.0000 146.000 0 1008 8 298
1961188N10147 1961 57 WP MM ELSIE 1961-07-06 21:00:00 TS 10.2274 145.720 main 1381 1381 _PP___________ -1 10.2124 145.713 2 1009 0 0 10.2424 145.727 0 1008 7 315
1961188N10147 1961 57 WP MM ELSIE 1961-07-07 00:00:00 TS 10.5000 145.500 1010 tokyo main 1417 1417 _OO___________ -1 10.5000 145.500 2 1010 0 0 0 10.5000 145.500 0 1008 7 320
1961188N10147 1961 57 WP MM ELSIE 1961-07-07 03:00:00 TS 10.7574 145.269 main 1452 1452 _PP___________ -1 10.7574 145.265 2 1009 0 0 10.7574 145.272 0 1008 7 315
1961188N10147 1961 57 WP MM ELSIE 1961-07-07 06:00:00 TS 11.0000 145.000 1008 tokyo main 1478 1478 _OO___________ -1 11.0000 145.000 2 1008 0 0 0 11.0000 145.000 0 1008 8 308
1961188N10147 1961 57 WP MM ELSIE 1961-07-07 09:00:00 TS 11.2300 144.659 main 1504 1504 _PP___________ -1 11.2299 144.680 2 1009 0 0 11.2300 144.638 0 1008 8 299
1961188N10147 1961 57 WP MM ELSIE 1961-07-07 12:00:00 TS 11.4000 144.250 1010 tokyo main 1533 1533 _OO___________ -1 11.4000 144.300 2 1010 0 0 0 11.4000 144.200 0 1008 8 286
1961188N10147 1961 57 WP MM ELSIE 1961-07-07 15:00:00 TS 11.4572 143.838 main 1554 1554 _PP___________ -1 11.4571 143.925 2 1009 0 0 11.4573 143.752 0 1008 9 276
1961188N10147 1961 57 WP MM ELSIE 1961-07-07 18:00:00 TS 11.5000 143.300 1008 tokyo main 1566 1557 _OO___________ -1 11.5000 143.400 2 1008 0 0 0 11.5000 143.200 0 1008 13 277
1961188N10147 1961 57 WP MM ELSIE 1961-07-07 21:00:00 TS 11.6127 142.534 main 1553 1545 _PP___________ -1 11.6053 142.602 2 1008 0 0 11.6202 142.465 0 1008 16 281
1961188N10147 1961 57 WP MM ELSIE 1961-07-08 00:00:00 TS 11.8000 141.700 1008 tokyo main 1550 1543 _OO___________ -1 11.8000 141.700 2 1008 0 0 0 11.8000 141.700 0 1008 16 287
1961188N10147 1961 57 WP MM ELSIE 1961-07-08 03:00:00 TS 12.0850 140.940 main 1547 1543 _PP___________ -1 12.1352 140.818 2 1008 0 0 12.0348 141.062 0 1008 15 294
1961188N10147 1961 57 WP MM ELSIE 1961-07-08 06:00:00 TS 12.4000 140.300 1008 tokyo main 1556 1544 _OO___________ -1 12.5000 140.100 2 1008 0 0 0 12.3000 140.500 0 1008 12 298
1961188N10147 1961 57 WP MM ELSIE 1961-07-08 09:00:00 TS 12.6497 139.847 main 1533 1506 _PP___________ -1 12.7496 139.717 2 1008 0 0 12.5499 139.977 0 1008 9 303
1961188N10147 1961 57 WP MM ELSIE 1961-07-08 12:00:00 TS 12.9000 139.500 1008 tokyo main 1506 1478 _OO___________ -1 13.0000 139.500 2 1008 0 0 0 12.8000 139.500 0 1008 9 312
1961188N10147 1961 57 WP MM ELSIE 1961-07-08 15:00:00 TS 13.2184 139.199 main 1478 1440 _PP___________ -1 13.3645 139.332 2 1008 0 0 13.0723 139.065 0 1008 9 311
1961188N10147 1961 57 WP MM ELSIE 1961-07-08 18:00:00 TS 13.5000 138.800 1008 tokyo main 1440 1381 _OO___________ -1 13.7000 139.000 2 1008 0 0 0 13.3000 138.600 0 1008 11 294
1961188N10147 1961 57 WP MM ELSIE 1961-07-08 21:00:00 TS 13.6739 138.139 main 1370 1296 _PP___________ -1 13.9031 138.225 2 1008 0 0 13.4448 138.052 0 1008 14 280
1961188N10147 1961 57 WP MM ELSIE 1961-07-09 00:00:00 TS 13.7500 137.350 1008 tokyo main 1298 1214 _OO___________ -1 14.0000 137.300 2 1008 0 0 0 13.5000 137.400 0 1008 15 274
1961188N10147 1961 57 WP MM ELSIE 1961-07-09 03:00:00 TS 13.7659 136.601 main 1214 1128 _PP___________ -1 14.0519 136.558 2 1008 0 0 13.4799 136.645 0 1008 15 268
1961188N10147 1961 57 WP MM ELSIE 1961-07-09 06:00:00 TS 13.7000 135.800 1008 tokyo main 1128 1038 _OO___________ -1 14.0000 135.800 2 1008 0 0 0 13.4000 135.800 0 1008 17 262
1961188N10147 1961 57 WP MM ELSIE 1961-07-09 09:00:00 TS 13.5312 134.911 main 1028 941 _PP___________ -1 13.7925 134.914 2 1008 0 0 13.2699 134.907 0 1008 18 260
1961188N10147 1961 57 WP MM ELSIE 1961-07-09 12:00:00 TS 13.4000 134.000 1008 tokyo main 931 846 _OO___________ -1 13.6000 134.000 2 1008 0 0 0 13.2000 134.000 0 1008 18 267
1961188N10147 1961 57 WP MM ELSIE 1961-07-09 15:00:00 TS 13.4399 133.113 main 835 753 _PP___________ -1 13.5899 133.113 2 1008 0 0 13.2899 133.113 0 1008 17 277
1961188N10147 1961 57 WP MM ELSIE 1961-07-09 18:00:00 TS 13.6000 132.300 1008 tokyo main 753 685 _OO___________ -1 13.7000 132.300 2 1008 0 0 0 13.5000 132.300 0 1008 15 284
1961188N10147 1961 57 WP MM ELSIE 1961-07-09 21:00:00 TS 13.7972 131.597 main 685 632 _PP___________ -1 13.8397 131.597 2 1008 0 0 13.7547 131.597 0 1008 14 292
1961188N10147 1961 57 WP MM ELSIE 1961-07-10 00:00:00 TS 14.1000 131.000 1008 tokyo main 632 599 _OO___________ -1 14.1000 131.000 2 1008 0 0 0 14.1000 131.000 0 1008 13 304
1961188N10147 1961 57 WP MM ELSIE 1961-07-10 03:00:00 TS 14.5121 130.503 main 599 578 _PP___________ -1 14.5046 130.500 2 1008 0 0 14.5195 130.507 0 1008 13 313
1961188N10147 1961 57 WP MM ELSIE 1961-07-10 06:00:00 TS 15.0000 130.000 1008 tokyo main 578 560 _OO___________ -1 15.0000 130.000 2 1008 0 0 0 15.0000 130.000 0 1008 15 313
1961188N10147 1961 57 WP MM ELSIE 1961-07-10 09:00:00 TS 15.5222 129.385 main 560 518 _PP___________ -1 15.5220 129.417 2 1008 0 0 15.5223 129.353 0 1008 16 308
1961188N10147 1961 57 WP MM ELSIE 1961-07-10 12:00:00 TS 16.0000 128.650 1008 tokyo main 518 453 _OO___________ -1 16.0000 128.700 2 1008 0 0 0 16.0000 128.600 0 1008 18 297
1961188N10147 1961 57 WP MM ELSIE 1961-07-10 15:00:00 TS 16.3304 127.750 main 444 402 _PP___________ -1 16.3306 127.750 2 1007 0 0 16.3302 127.750 0 1007 18 289
1961188N10147 1961 57 WP MM ELSIE 1961-07-10 18:00:00 TS 16.6000 126.850 1006 tokyo main 403 373 _OO___________ -1 16.6000 126.800 2 1006 0 0 0 16.6000 126.900 1 23 1006 17 289
1961188N10147 1961 57 WP MM ELSIE 1961-07-10 21:00:00 TS 16.8771 126.115 main 377 319 _PP___________ -1 16.8770 126.082 2 1006 0 0 16.8773 126.147 1 23 1006 14 295
1961188N10147 1961 57 WP MM ELSIE 1961-07-11 00:00:00 TS 17.2000 125.500 1006 tokyo main 319 271 _OO___________ -1 17.2000 125.500 2 1006 0 0 0 17.2000 125.500 1 23 1006 13 302
1961188N10147 1961 57 WP MM ELSIE 1961-07-11 03:00:00 TS 17.5899 124.936 main 263 233 _PP___________ -1 17.5899 124.940 2 1006 0 0 17.5899 124.932 1 23 1006 13 313
1961188N10147 1961 57 WP MM ELSIE 1961-07-11 06:00:00 TS 18.1000 124.500 1006 tokyo main 233 203 _OO___________ -1 18.1000 124.500 2 1006 0 0 0 18.1000 124.500 1 23 1006 14 330
1961188N10147 1961 57 WP MM ELSIE 1961-07-11 09:00:00 TS 18.8373 124.190 main 205 201 _PP___________ -1 18.8373 124.190 2 1005 0 0 18.8373 124.190 1 23 1005 15 341
1961188N10147 1961 57 WP MM ELSIE 1961-07-11 12:00:00 TS 19.5000 124.000 1004 tokyo main 217 215 _OO___________ -1 19.5000 124.000 2 1004 0 0 0 19.5000 124.000 1 23 1004 10 342
1961188N10147 1961 57 WP MM ELSIE 1961-07-11 15:00:00 TS 19.7899 123.870 main 229 222 _PP___________ -1 19.7899 123.870 2 1003 0 0 19.7899 123.870 1 26 1003 4 335
1961188N10147 1961 57 WP MM ELSIE 1961-07-11 18:00:00 TS 19.9000 123.800 1002 tokyo main 230 230 _OO___________ -1 19.9000 123.800 2 1002 0 0 0 19.9000 123.800 1 29 1002 3 334
1961188N10147 1961 57 WP MM ELSIE 1961-07-11 21:00:00 TS 20.0150 123.750 main 231 231 _PP___________ -1 20.0150 123.750 2 1001 0 0 20.0150 123.750 1 33 1001 2 333
1961188N10147 1961 57 WP MM ELSIE 1961-07-12 00:00:00 TS 20.1111 123.678 1000 tokyo main 240 234 _OOO__________ -1 20.1000 123.700 2 1000 0 0 0 20.1000 123.700 2 38 1000 20.2000 123.500 TD 30 1000 3 320
1961188N10147 1961 57 WP MM ELSIE 1961-07-12 03:00:00 TS 20.2390 123.554 main 243 237 _PPP__________ -1 20.1925 123.607 2 1000 0 0 20.1925 123.607 2 38 1000 20.4250 123.340 TD 40 997 4 318
1961188N10147 1961 57 WP MM ELSIE 1961-07-12 06:00:00 TS 20.3818 123.418 1000 tokyo main 251 251 _OOO__________ -1 20.3000 123.500 2 1000 0 0 0 20.3000 123.500 2 38 1000 20.6000 123.200 STS 50 995 4 320
1961188N10147 1961 57 WP MM ELSIE 1961-07-12 09:00:00 TS 20.5233 123.302 main 257 257 _PPP__________ -1 20.4350 123.407 2 998 0 0 20.4350 123.407 2 48 998 20.7000 123.092 STS 55 990 4 324
1961188N10147 1961 57 WP MM ELSIE 1961-07-12 12:00:00 TS 20.7000 123.175 996 tokyo main 273 244 OOOO_____OOO__ jtwc_wp WP091961 20.8000 123.100 70 1 20.6000 123.300 9 996 0 0 0 20.6000 123.300 3 58 996 20.8000 123.000 STS 60 985 20.8000 123.100 TC 70 20.8000 123.100 3 70 20.8000 123.100 70 988 180 5 326
1961188N10147 1961 57 WP MM ELSIE 1961-07-12 15:00:00 TS 20.9202 123.012 main 244 215 PPPP_____PPP__ WP091961 21.0201 122.898 72 1 20.7925 123.172 9 993 0 0 20.7925 123.172 3 67 993 21.0000 122.915 STS 65 980 21.0201 122.898 TC 72 20.9720 122.907 3 72 21.0201 122.898 72 987 180 5 322
1961188N10147 1961 57 WP MM ELSIE 1961-07-12 18:00:00 TS 21.1252 122.818 990 tokyo main 215 188 OOOO_____OPO__ jtwc_wp WP091961 21.2000 122.700 75 1 21.0000 123.000 9 990 0 0 0 21.0000 123.000 4 77 990 21.2000 122.800 T 70 975 21.2000 122.700 TC 75 21.1351 122.711 3 75 21.2000 122.700 75 987 180 5 313
1961188N10147 1961 57 WP MM ELSIE 1961-07-12 21:00:00 TS 21.2826 122.600 main 188 164 PPPP_____PPP__ WP091961 21.3149 122.507 77 1 21.2075 122.773 9 987 0 0 21.2225 122.773 4 87 985 21.3225 122.622 T 70 975 21.3149 122.507 TC 77 21.2807 122.509 3 77 21.3149 122.507 77 984 180 5 303
1961188N10147 1961 57 WP MM ELSIE 1961-07-13 00:00:00 TS 21.4000 122.371 985 tokyo main 164 131 OOOO_____OOO__ jtwc_wp WP091961 21.4000 122.300 80 1 21.4000 122.500 9 985 0 0 0 21.4000 122.500 5 97 981 21.4000 122.400 T 70 975 21.4000 122.300 TC 80 21.4000 122.300 4 80 21.4000 122.300 80 982 180 5 295
1961188N10147 1961 57 WP MM ELSIE 1961-07-13 03:00:00 TS 21.4976 122.112 main 131 108 PPPP_____PPP__ WP091961 21.5075 122.050 80 1 21.5724 122.215 9 980 0 0 21.4575 122.200 5 97 978 21.4426 122.135 T 70 975 21.5075 122.050 TC 80 21.4884 122.082 4 79 21.5075 122.050 79 978 180 5 290
1961188N10147 1961 57 WP MM ELSIE 1961-07-13 06:00:00 TS 21.5796 121.851 975 tokyo main 108 75 OOOO_____OPO__ jtwc_wp WP091961 21.6000 121.800 80 1 21.7000 121.900 9 975 0 0 0 21.5000 121.900 5 97 975 21.5000 121.900 T 70 975 21.6000 121.800 TC 80 21.5574 121.857 4 79 21.6000 121.800 78 974 180 5 290
1961188N10147 1961 57 WP MM ELSIE 1961-07-13 09:00:00 TS 21.6636 121.631 main 75 56 PPPP_____PPP__ WP091961 21.6574 121.600 80 1 21.7651 121.535 9 975 0 0 21.6425 121.635 5 97 976 21.6423 121.815 T 67 975 21.6574 121.600 TC 80 21.6228 121.629 4 78 21.6574 121.600 78 975 180 4 292
1961188N10147 1961 57 WP MM ELSIE 1961-07-13 12:00:00 TS 21.7429 121.414 975 tokyo main 56 32 OOOO_____OOO__ jtwc_wp WP091961 21.7000 121.400 80 1 21.8000 121.200 9 975 0 0 0 21.8000 121.400 5 97 977 21.8000 121.700 T 65 975 21.7000 121.400 TC 80 21.7000 121.400 4 78 21.7000 121.400 78 977 180 4 290
1961188N10147 1961 57 WP MM ELSIE 1961-07-13 15:00:00 TS 21.8139 121.180 main 32 0 PPPP_____PPP__ WP091961 21.7275 121.150 75 1 21.8497 121.007 9 975 0 0 21.9074 121.200 5 92 978 21.9149 121.410 T 65 977 21.7275 121.150 TC 75 21.8428 121.196 4 75 21.7275 121.150 75 978 180 5 289
1961188N10147 1961 57 WP MM ELSIE 1961-07-13 18:00:00 TS 21.8992 120.927 975 tokyo main 0 0 OOOO_____OPO__ jtwc_wp WP091961 21.8000 120.900 70 1 21.9000 120.800 9 975 0 0 0 22.0000 121.000 5 87 980 22.0000 121.000 T 65 980 21.8000 120.900 TC 70 21.9945 120.988 4 73 21.8000 120.900 72 980 180 5 294
1961188N10147 1961 57 WP MM ELSIE 1961-07-13 21:00:00 TS 22.0320 120.656 main 0 0 PPPP_____PPP__ WP091961 22.0073 120.715 70 1 21.9276 120.422 9 980 0 0 22.0925 120.757 5 82 982 22.0577 120.507 T 65 981 22.0073 120.715 TC 70 22.1240 120.761 4 70 22.0073 120.715 70 982 180 6 296
1961188N10147 1961 57 WP MM ELSIE 1961-07-14 00:00:00 TS 22.1571 120.357 985 tokyo main 23 23 OOOO_____OOO__ jtwc_wp WP091961 22.2000 120.500 70 1 22.0000 120.000 9 985 0 0 0 22.2000 120.500 4 77 984 22.1000 120.000 T 65 983 22.2000 120.500 TC 70 22.2000 120.500 4 68 22.2000 120.500 68 984 180 6 288
1961188N10147 1961 57 WP MM ELSIE 1961-07-14 03:00:00 TS 22.2212 120.037 main 45 45 PPPP_____PPP__ WP091961 22.2525 120.173 65 1 22.1700 119.628 9 985 0 0 22.3423 120.280 4 72 986 22.1497 119.600 T 65 985 22.2525 120.173 TC 65 22.1288 120.237 4 63 22.2525 120.173 64 986 180 6 278
1961188N10147 1961 57 WP MM ELSIE 1961-07-14 06:00:00 TS 22.2444 119.690 985 tokyo main 70 70 OOOO_____OPO__ jtwc_wp WP091961 22.2000 119.800 60 0 22.4000 119.300 9 985 0 0 0 22.5000 120.000 4 68 988 22.2000 119.200 T 65 987 22.2000 119.800 TC 60 22.0110 119.932 4 59 22.2000 119.800 60 988 180 6 269
1961188N10147 1961 57 WP MM ELSIE 1961-07-14 09:00:00 TS 22.2141 119.343 main 108 108 PPPP_____PPP__ WP091961 22.0122 119.479 55 0 22.6721 119.080 9 987 0 0 22.6648 119.610 4 63 989 22.2125 118.715 T 55 988 22.0122 119.479 TC 55 21.9127 119.561 4 54 22.0122 119.479 55 990 180 7 269
1961188N10147 1961 57 WP MM ELSIE 1961-07-14 12:00:00 TS 22.2286 118.929 990 tokyo main 147 147 OOOO_____OOO__ jtwc_wp WP091961 21.9000 119.100 50 0 22.9000 118.800 9 990 0 0 0 22.8000 119.100 3 58 990 22.3000 118.200 TS 45 990 21.9000 119.100 TC 50 21.9000 119.100 2 50 21.9000 119.100 50 992 180 9 281
1961188N10147 1961 57 WP MM ELSIE 1961-07-14 15:00:00 TS 22.3842 118.413 main 166 126 PPPP_____PPP__ WP091961 22.0896 118.618 45 0 22.9723 118.325 9 990 0 0 22.8425 118.487 3 53 990 22.5849 117.693 TS 40 991 22.0896 118.618 TC 45 22.0209 118.531 2 45 22.0896 118.618 45 993 180 11 290
1961188N10147 1961 57 WP MM ELSIE 1961-07-14 18:00:00 TS 22.6101 117.816 990 tokyo main 123 62 OOOO_____OPO__ jtwc_wp WP091961 22.4000 118.000 40 0 23.0000 117.700 9 990 0 0 0 22.9000 117.800 3 48 990 22.9000 117.200 TS 35 992 22.4000 118.000 TC 40 22.2538 117.873 2 40 22.4000 118.000 40 995 180 13 289
1961188N10147 1961 57 WP MM ELSIE 1961-07-14 21:00:00 TS 22.7985 117.095 main 62 0 PPPP_____PPP__ WP091961 22.6129 117.214 35 0 23.0481 116.935 9 992 0 0 23.0779 117.048 3 38 991 23.0927 116.740 TS 30 993 22.6129 117.214 TC 35 22.5597 117.153 2 35 22.6129 117.214 35 996 180 14 289
1961188N10147 1961 57 WP MM ELSIE 1961-07-15 00:00:00 TS 23.0632 116.353 994 tokyo main 0 0 OOOO_____OOO__ jtwc_wp WP091961 22.9000 116.400 30 -1 23.2000 116.200 2 994 0 0 0 23.3000 116.400 1 29 992 23.2000 116.300 TD 25 994 22.9000 116.400 TC 30 22.9000 116.400 1 30 22.9000 116.400 30 998 180 13 298
1961188N10147 1961 57 WP MM ELSIE 1961-07-15 03:00:00 TS 23.4273 115.825 main 0 0 PPP______P_P__ WP091961 23.3500 115.709 27 -1 23.5166 115.734 2 994 0 0 23.4540 116.091 1 23 993 TD 23.3500 115.709 TC 27 1 23.3500 115.709 27 1000 180 12 313
1961188N10147 1961 57 WP MM ELSIE 1961-07-15 06:00:00 TS 23.8636 115.427 994 tokyo main 0 0 OOO______O_O__ jtwc_wp WP091961 23.9000 115.100 25 -1 24.0000 115.300 2 994 0 0 0 23.7000 115.800 0 17 994 23.9000 115.100 TC 25 1 23.9000 115.100 25 1002 180 12 320
1961188N10147 1961 57 WP MM ELSIE 1961-07-15 09:00:00 TS 24.3763 114.953 main 0 0 _PP___________ WP091961 -1 24.6200 114.688 2 995 0 0 24.1326 115.217 0 17 994 TC 1 16 317
1961188N10147 1961 57 WP MM ELSIE 1961-07-15 12:00:00 TS 25.0000 114.250 996 tokyo main 0 0 _OO___________ -1 25.3000 114.000 2 996 0 0 0 24.7000 114.500 0 17 995 18 314
1961188N10147 1961 57 WP MM ELSIE 1961-07-15 15:00:00 TS 25.6174 113.524 main 0 0 _PP___________ -1 25.9604 113.248 2 997 0 0 25.2743 113.800 0 17 996 18 314
1961188N10147 1961 57 WP MM ELSIE 1961-07-15 18:00:00 TS 26.2500 112.800 998 tokyo main 0 0 _OO___________ -1 26.5000 112.600 2 998 0 0 0 26.0000 113.000 0 17 997 18 315
1961188N10147 1961 57 WP MM ELSIE 1961-07-15 21:00:00 TS 26.8782 112.133 main 0 0 _PP___________ -1 26.8171 112.217 2 999 0 0 26.9394 112.050 0 17 998 17 317
1961188N10147 1961 57 WP MM ELSIE 1961-07-16 00:00:00 TS 27.5000 111.500 1000 tokyo main 0 _OO___________ -1 27.0000 112.000 2 1000 0 0 0 28.0000 111.000 0 17 999 17 318

デジタル台風データ・検索

IBTrACS Databaseについて

本データベースは、米国NOAAが公開する1842年以降の世界の熱帯低気圧のベストトラックデータアーカイブInternational Best Track Archive for Climate Stewardship (IBTrACS)を、ウェブで閲覧しやすい形式に変換したものです。

最終更新日:2021-11-26